sensor_id;sensor_type;location;lat;lon;timestamp;temperature;humidity
33655;DHT22;19997;51.274;22.506;2023-05-23T00:01:13;13.50;77.30
33655;DHT22;19997;51.274;22.506;2023-05-23T00:03:43;13.50;77.50
33655;DHT22;19997;51.274;22.506;2023-05-23T00:06:10;13.50;77.60
33655;DHT22;19997;51.274;22.506;2023-05-23T00:08:37;13.40;77.70
33655;DHT22;19997;51.274;22.506;2023-05-23T00:11:04;13.40;77.90
33655;DHT22;19997;51.274;22.506;2023-05-23T00:13:31;13.40;78.00
33655;DHT22;19997;51.274;22.506;2023-05-23T00:15:59;13.40;78.30
33655;DHT22;19997;51.274;22.506;2023-05-23T00:18:27;13.30;78.40
33655;DHT22;19997;51.274;22.506;2023-05-23T00:20:56;13.30;78.50
33655;DHT22;19997;51.274;22.506;2023-05-23T00:23:24;13.30;78.60
33655;DHT22;19997;51.274;22.506;2023-05-23T00:25:54;13.20;78.70
33655;DHT22;19997;51.274;22.506;2023-05-23T00:28:23;13.20;78.70
33655;DHT22;19997;51.274;22.506;2023-05-23T00:30:50;13.20;78.80
33655;DHT22;19997;51.274;22.506;2023-05-23T00:33:17;13.20;78.90
33655;DHT22;19997;51.274;22.506;2023-05-23T00:35:46;13.10;79.60
33655;DHT22;19997;51.274;22.506;2023-05-23T00:38:15;13.10;78.90
33655;DHT22;19997;51.274;22.506;2023-05-23T00:40:43;13.10;79.00
33655;DHT22;19997;51.274;22.506;2023-05-23T00:43:10;13.10;79.00
33655;DHT22;19997;51.274;22.506;2023-05-23T00:45:38;13.00;79.10
33655;DHT22;19997;51.274;22.506;2023-05-23T00:48:06;13.00;79.10
33655;DHT22;19997;51.274;22.506;2023-05-23T00:50:34;13.00;79.40
33655;DHT22;19997;51.274;22.506;2023-05-23T00:53:01;13.00;79.40
33655;DHT22;19997;51.274;22.506;2023-05-23T00:55:30;13.00;79.60
33655;DHT22;19997;51.274;22.506;2023-05-23T00:57:57;13.00;79.60
33655;DHT22;19997;51.274;22.506;2023-05-23T01:00:25;12.90;79.60
33655;DHT22;19997;51.274;22.506;2023-05-23T01:02:52;12.90;79.80
33655;DHT22;19997;51.274;22.506;2023-05-23T01:05:20;12.90;79.80
33655;DHT22;19997;51.274;22.506;2023-05-23T01:07:50;12.90;79.90
33655;DHT22;19997;51.274;22.506;2023-05-23T01:10:19;12.90;80.00
33655;DHT22;19997;51.274;22.506;2023-05-23T01:13:10;12.80;80.00
33655;DHT22;19997;51.274;22.506;2023-05-23T01:15:43;12.80;80.30
33655;DHT22;19997;51.274;22.506;2023-05-23T01:18:15;12.80;80.20
33655;DHT22;19997;51.274;22.506;2023-05-23T01:20:47;12.80;80.20
33655;DHT22;19997;51.274;22.506;2023-05-23T01:23:32;12.80;80.40
33655;DHT22;19997;51.274;22.506;2023-05-23T01:26:18;12.70;80.50
33655;DHT22;19997;51.274;22.506;2023-05-23T01:28:55;12.70;80.60
33655;DHT22;19997;51.274;22.506;2023-05-23T01:31:26;12.70;80.60
33655;DHT22;19997;51.274;22.506;2023-05-23T01:33:55;12.70;80.60
33655;DHT22;19997;51.274;22.506;2023-05-23T01:36:23;12.70;80.70
33655;DHT22;19997;51.274;22.506;2023-05-23T01:38:51;12.60;80.80
33655;DHT22;19997;51.274;22.506;2023-05-23T01:41:18;12.60;80.80
33655;DHT22;19997;51.274;22.506;2023-05-23T01:43:46;12.60;81.10
33655;DHT22;19997;51.274;22.506;2023-05-23T01:46:15;12.60;81.20
33655;DHT22;19997;51.274;22.506;2023-05-23T01:48:43;12.60;81.20
33655;DHT22;19997;51.274;22.506;2023-05-23T01:51:11;12.50;81.20
33655;DHT22;19997;51.274;22.506;2023-05-23T01:53:38;12.50;81.40
33655;DHT22;19997;51.274;22.506;2023-05-23T01:56:05;12.50;81.50
33655;DHT22;19997;51.274;22.506;2023-05-23T01:58:32;12.50;81.60
33655;DHT22;19997;51.274;22.506;2023-05-23T02:01:00;12.50;81.70
33655;DHT22;19997;51.274;22.506;2023-05-23T02:03:28;12.40;81.60
33655;DHT22;19997;51.274;22.506;2023-05-23T02:05:59;12.40;81.80
33655;DHT22;19997;51.274;22.506;2023-05-23T02:08:26;12.40;81.90
33655;DHT22;19997;51.274;22.506;2023-05-23T02:10:53;12.40;81.90
33655;DHT22;19997;51.274;22.506;2023-05-23T02:13:20;12.40;82.70
33655;DHT22;19997;51.274;22.506;2023-05-23T02:15:47;12.40;82.20
33655;DHT22;19997;51.274;22.506;2023-05-23T02:18:15;12.40;82.30
33655;DHT22;19997;51.274;22.506;2023-05-23T02:20:44;12.40;82.40
33655;DHT22;19997;51.274;22.506;2023-05-23T02:23:11;12.30;82.40
33655;DHT22;19997;51.274;22.506;2023-05-23T02:25:38;12.30;82.50
33655;DHT22;19997;51.274;22.506;2023-05-23T02:28:06;12.30;82.50
33655;DHT22;19997;51.274;22.506;2023-05-23T02:30:33;12.30;82.70
33655;DHT22;19997;51.274;22.506;2023-05-23T02:33:04;12.30;82.80
33655;DHT22;19997;51.274;22.506;2023-05-23T02:35:31;12.30;82.90
33655;DHT22;19997;51.274;22.506;2023-05-23T02:38:00;12.30;82.90
33655;DHT22;19997;51.274;22.506;2023-05-23T02:40:27;12.30;83.00
33655;DHT22;19997;51.274;22.506;2023-05-23T02:42:54;12.30;83.10
33655;DHT22;19997;51.274;22.506;2023-05-23T02:45:23;12.40;83.20
33655;DHT22;19997;51.274;22.506;2023-05-23T02:47:50;12.40;83.30
33655;DHT22;19997;51.274;22.506;2023-05-23T02:50:17;12.40;83.40
33655;DHT22;19997;51.274;22.506;2023-05-23T02:52:45;12.40;83.40
33655;DHT22;19997;51.274;22.506;2023-05-23T02:55:13;12.40;83.50
33655;DHT22;19997;51.274;22.506;2023-05-23T02:57:44;12.40;83.60
33655;DHT22;19997;51.274;22.506;2023-05-23T03:00:12;12.40;83.70
33655;DHT22;19997;51.274;22.506;2023-05-23T03:02:41;12.40;83.80
33655;DHT22;19997;51.274;22.506;2023-05-23T03:05:09;12.50;83.80
33655;DHT22;19997;51.274;22.506;2023-05-23T03:07:36;12.50;83.80
33655;DHT22;19997;51.274;22.506;2023-05-23T03:10:03;12.50;83.90
33655;DHT22;19997;51.274;22.506;2023-05-23T03:12:32;12.50;83.90
33655;DHT22;19997;51.274;22.506;2023-05-23T03:14:59;12.50;84.00
33655;DHT22;19997;51.274;22.506;2023-05-23T03:17:26;12.60;84.10
33655;DHT22;19997;51.274;22.506;2023-05-23T03:19:56;12.60;84.20
33655;DHT22;19997;51.274;22.506;2023-05-23T03:22:23;12.60;84.20
33655;DHT22;19997;51.274;22.506;2023-05-23T03:24:50;12.60;84.20
33655;DHT22;19997;51.274;22.506;2023-05-23T03:27:17;12.70;84.30
33655;DHT22;19997;51.274;22.506;2023-05-23T03:29:45;12.70;84.30
33655;DHT22;19997;51.274;22.506;2023-05-23T03:32:13;12.70;84.40
33655;DHT22;19997;51.274;22.506;2023-05-23T03:34:40;12.80;84.50
33655;DHT22;19997;51.274;22.506;2023-05-23T03:37:07;12.80;84.50
33655;DHT22;19997;51.274;22.506;2023-05-23T03:39:34;12.80;84.60
33655;DHT22;19997;51.274;22.506;2023-05-23T03:42:01;12.90;84.60
33655;DHT22;19997;51.274;22.506;2023-05-23T03:44:29;12.90;84.50
33655;DHT22;19997;51.274;22.506;2023-05-23T03:46:57;12.90;84.60
33655;DHT22;19997;51.274;22.506;2023-05-23T03:49:24;13.00;84.70
33655;DHT22;19997;51.274;22.506;2023-05-23T03:51:51;13.00;84.70
33655;DHT22;19997;51.274;22.506;2023-05-23T03:54:18;13.10;84.70
33655;DHT22;19997;51.274;22.506;2023-05-23T03:56:45;13.10;84.70
33655;DHT22;19997;51.274;22.506;2023-05-23T03:59:13;13.20;84.80
33655;DHT22;19997;51.274;22.506;2023-05-23T04:01:40;13.30;84.80
33655;DHT22;19997;51.274;22.506;2023-05-23T04:04:09;13.30;84.80
33655;DHT22;19997;51.274;22.506;2023-05-23T04:06:37;13.40;84.80
33655;DHT22;19997;51.274;22.506;2023-05-23T04:09:04;13.50;84.80
33655;DHT22;19997;51.274;22.506;2023-05-23T04:11:35;13.50;84.80
33655;DHT22;19997;51.274;22.506;2023-05-23T04:14:02;13.60;84.80
33655;DHT22;19997;51.274;22.506;2023-05-23T04:16:29;13.70;84.80
33655;DHT22;19997;51.274;22.506;2023-05-23T04:19:01;13.80;84.90
33655;DHT22;19997;51.274;22.506;2023-05-23T04:21:30;13.80;84.90
33655;DHT22;19997;51.274;22.506;2023-05-23T04:24:06;13.90;84.80
33655;DHT22;19997;51.274;22.506;2023-05-23T04:26:33;14.00;84.70
33655;DHT22;19997;51.274;22.506;2023-05-23T04:29:02;14.10;84.70
33655;DHT22;19997;51.274;22.506;2023-05-23T04:31:31;14.20;84.60
33655;DHT22;19997;51.274;22.506;2023-05-23T04:34:00;14.30;84.50
33655;DHT22;19997;51.274;22.506;2023-05-23T04:36:30;14.40;84.40
33655;DHT22;19997;51.274;22.506;2023-05-23T04:38:58;14.50;84.20
33655;DHT22;19997;51.274;22.506;2023-05-23T04:41:26;14.60;84.10
33655;DHT22;19997;51.274;22.506;2023-05-23T04:44:02;14.70;84.00
33655;DHT22;19997;51.274;22.506;2023-05-23T04:46:35;14.80;83.80
33655;DHT22;19997;51.274;22.506;2023-05-23T04:49:14;14.90;83.50
33655;DHT22;19997;51.274;22.506;2023-05-23T04:51:43;15.00;83.20
33655;DHT22;19997;51.274;22.506;2023-05-23T04:54:27;15.10;83.00
33655;DHT22;19997;51.274;22.506;2023-05-23T04:56:57;15.20;82.60
33655;DHT22;19997;51.274;22.506;2023-05-23T04:59:25;15.30;82.30
33655;DHT22;19997;51.274;22.506;2023-05-23T05:01:53;15.40;81.90
33655;DHT22;19997;51.274;22.506;2023-05-23T05:04:20;15.50;81.70
33655;DHT22;19997;51.274;22.506;2023-05-23T05:06:49;15.60;81.40
33655;DHT22;19997;51.274;22.506;2023-05-23T05:09:17;15.70;81.00
33655;DHT22;19997;51.274;22.506;2023-05-23T05:11:45;15.80;80.80
33655;DHT22;19997;51.274;22.506;2023-05-23T05:14:13;15.90;80.50
33655;DHT22;19997;51.274;22.506;2023-05-23T05:16:40;16.00;80.90
33655;DHT22;19997;51.274;22.506;2023-05-23T05:19:07;16.10;79.60
33655;DHT22;19997;51.274;22.506;2023-05-23T05:21:34;16.20;79.20
33655;DHT22;19997;51.274;22.506;2023-05-23T05:24:03;16.30;78.70
33655;DHT22;19997;51.274;22.506;2023-05-23T05:26:30;16.40;78.50
33655;DHT22;19997;51.274;22.506;2023-05-23T05:28:58;16.50;78.10
33655;DHT22;19997;51.274;22.506;2023-05-23T05:31:26;16.60;77.90
33655;DHT22;19997;51.274;22.506;2023-05-23T05:33:54;16.70;77.40
33655;DHT22;19997;51.274;22.506;2023-05-23T05:36:21;16.80;76.90
33655;DHT22;19997;51.274;22.506;2023-05-23T05:38:49;16.90;76.90
33655;DHT22;19997;51.274;22.506;2023-05-23T05:41:20;17.00;76.50
33655;DHT22;19997;51.274;22.506;2023-05-23T05:43:50;17.10;76.20
33655;DHT22;19997;51.274;22.506;2023-05-23T05:46:17;17.20;76.00
33655;DHT22;19997;51.274;22.506;2023-05-23T05:49:02;17.30;75.70
33655;DHT22;19997;51.274;22.506;2023-05-23T05:51:31;17.30;75.40
33655;DHT22;19997;51.274;22.506;2023-05-23T05:53:58;17.50;75.30
33655;DHT22;19997;51.274;22.506;2023-05-23T05:56:26;17.50;75.10
33655;DHT22;19997;51.274;22.506;2023-05-23T05:58:54;17.60;74.70
33655;DHT22;19997;51.274;22.506;2023-05-23T06:01:21;17.70;74.60
33655;DHT22;19997;51.274;22.506;2023-05-23T06:03:50;17.80;74.20
33655;DHT22;19997;51.274;22.506;2023-05-23T06:06:17;17.90;73.90
33655;DHT22;19997;51.274;22.506;2023-05-23T06:08:45;18.00;73.80
33655;DHT22;19997;51.274;22.506;2023-05-23T06:11:15;18.10;73.50
33655;DHT22;19997;51.274;22.506;2023-05-23T06:13:43;18.20;73.40
33655;DHT22;19997;51.274;22.506;2023-05-23T06:16:11;18.30;73.00
33655;DHT22;19997;51.274;22.506;2023-05-23T06:18:39;18.40;72.60
33655;DHT22;19997;51.274;22.506;2023-05-23T06:21:08;18.50;72.30
33655;DHT22;19997;51.274;22.506;2023-05-23T06:23:36;18.50;71.70
33655;DHT22;19997;51.274;22.506;2023-05-23T06:26:04;18.60;71.50
33655;DHT22;19997;51.274;22.506;2023-05-23T06:28:36;18.70;71.20
33655;DHT22;19997;51.274;22.506;2023-05-23T06:31:05;18.90;71.20
33655;DHT22;19997;51.274;22.506;2023-05-23T06:33:35;18.90;70.80
33655;DHT22;19997;51.274;22.506;2023-05-23T06:36:02;19.10;70.80
33655;DHT22;19997;51.274;22.506;2023-05-23T06:38:31;19.10;70.30
33655;DHT22;19997;51.274;22.506;2023-05-23T06:40:59;19.20;70.10
33655;DHT22;19997;51.274;22.506;2023-05-23T06:43:28;19.30;69.60
33655;DHT22;19997;51.274;22.506;2023-05-23T06:46:12;19.30;69.20
33655;DHT22;19997;51.274;22.506;2023-05-23T06:48:39;19.50;68.80
33655;DHT22;19997;51.274;22.506;2023-05-23T06:51:07;19.60;68.30
33655;DHT22;19997;51.274;22.506;2023-05-23T06:53:35;19.70;68.30
33655;DHT22;19997;51.274;22.506;2023-05-23T06:56:03;19.80;68.10
33655;DHT22;19997;51.274;22.506;2023-05-23T06:58:35;20.00;68.00
33655;DHT22;19997;51.274;22.506;2023-05-23T07:01:03;20.10;67.70
33655;DHT22;19997;51.274;22.506;2023-05-23T07:03:35;20.20;67.30
33655;DHT22;19997;51.274;22.506;2023-05-23T07:06:05;20.30;67.20
33655;DHT22;19997;51.274;22.506;2023-05-23T07:08:33;20.40;66.90
33655;DHT22;19997;51.274;22.506;2023-05-23T07:11:00;20.50;66.10
33655;DHT22;19997;51.274;22.506;2023-05-23T07:13:31;20.60;65.60
33655;DHT22;19997;51.274;22.506;2023-05-23T07:15:59;20.80;65.20
33655;DHT22;19997;51.274;22.506;2023-05-23T07:18:26;20.90;64.00
33655;DHT22;19997;51.274;22.506;2023-05-23T07:20:57;21.00;63.70
33655;DHT22;19997;51.274;22.506;2023-05-23T07:23:24;21.10;63.50
33655;DHT22;19997;51.274;22.506;2023-05-23T07:25:51;21.20;63.10
33655;DHT22;19997;51.274;22.506;2023-05-23T07:28:24;21.30;63.20
33655;DHT22;19997;51.274;22.506;2023-05-23T07:30:53;21.40;62.10
33655;DHT22;19997;51.274;22.506;2023-05-23T07:33:22;21.50;61.10
33655;DHT22;19997;51.274;22.506;2023-05-23T07:35:50;21.60;60.10
33655;DHT22;19997;51.274;22.506;2023-05-23T07:38:18;21.50;59.40
33655;DHT22;19997;51.274;22.506;2023-05-23T07:40:45;21.60;59.30
33655;DHT22;19997;51.274;22.506;2023-05-23T07:43:12;21.70;59.60
33655;DHT22;19997;51.274;22.506;2023-05-23T07:45:39;21.80;59.80
33655;DHT22;19997;51.274;22.506;2023-05-23T07:48:07;21.80;59.70
33655;DHT22;19997;51.274;22.506;2023-05-23T07:50:35;21.90;59.30
33655;DHT22;19997;51.274;22.506;2023-05-23T07:53:04;21.90;58.80
33655;DHT22;19997;51.274;22.506;2023-05-23T07:55:34;22.00;58.80
33655;DHT22;19997;51.274;22.506;2023-05-23T07:58:01;22.00;58.70
33655;DHT22;19997;51.274;22.506;2023-05-23T08:00:28;22.10;57.80
33655;DHT22;19997;51.274;22.506;2023-05-23T08:03:03;22.20;57.40
33655;DHT22;19997;51.274;22.506;2023-05-23T08:05:39;22.30;57.20
33655;DHT22;19997;51.274;22.506;2023-05-23T08:08:06;22.40;56.80
33655;DHT22;19997;51.274;22.506;2023-05-23T08:10:35;22.50;55.70
33655;DHT22;19997;51.274;22.506;2023-05-23T08:13:09;22.50;55.40
33655;DHT22;19997;51.274;22.506;2023-05-23T08:15:44;22.60;55.20
33655;DHT22;19997;51.274;22.506;2023-05-23T08:18:16;22.70;54.00
33655;DHT22;19997;51.274;22.506;2023-05-23T08:20:43;22.70;52.80
33655;DHT22;19997;51.274;22.506;2023-05-23T08:23:10;22.80;52.50
33655;DHT22;19997;51.274;22.506;2023-05-23T08:25:40;22.80;52.90
33655;DHT22;19997;51.274;22.506;2023-05-23T08:28:07;22.90;53.30
33655;DHT22;19997;51.274;22.506;2023-05-23T08:30:43;23.00;53.10
33655;DHT22;19997;51.274;22.506;2023-05-23T08:33:11;23.00;52.60
33655;DHT22;19997;51.274;22.506;2023-05-23T08:35:41;23.10;52.70
33655;DHT22;19997;51.274;22.506;2023-05-23T08:38:10;23.10;52.60
33655;DHT22;19997;51.274;22.506;2023-05-23T08:40:50;23.10;52.20
33655;DHT22;19997;51.274;22.506;2023-05-23T08:43:18;23.10;52.00
33655;DHT22;19997;51.274;22.506;2023-05-23T08:45:46;23.20;51.70
33655;DHT22;19997;51.274;22.506;2023-05-23T08:48:17;23.20;51.70
33655;DHT22;19997;51.274;22.506;2023-05-23T08:50:49;23.30;51.70
33655;DHT22;19997;51.274;22.506;2023-05-23T08:53:20;23.30;51.90
33655;DHT22;19997;51.274;22.506;2023-05-23T08:55:58;23.30;51.40
33655;DHT22;19997;51.274;22.506;2023-05-23T08:58:34;23.40;51.10
33655;DHT22;19997;51.274;22.506;2023-05-23T09:01:04;23.40;51.20
33655;DHT22;19997;51.274;22.506;2023-05-23T09:03:31;23.40;51.00
33655;DHT22;19997;51.274;22.506;2023-05-23T09:06:21;23.40;51.10
33655;DHT22;19997;51.274;22.506;2023-05-23T09:08:49;23.50;51.10
33655;DHT22;19997;51.274;22.506;2023-05-23T09:11:20;23.60;51.20
33655;DHT22;19997;51.274;22.506;2023-05-23T09:13:49;23.60;51.40
33655;DHT22;19997;51.274;22.506;2023-05-23T09:16:18;23.70;51.70
33655;DHT22;19997;51.274;22.506;2023-05-23T09:18:50;23.70;51.50
33655;DHT22;19997;51.274;22.506;2023-05-23T09:21:19;23.70;51.90
33655;DHT22;19997;51.274;22.506;2023-05-23T09:24:13;23.70;52.50
33655;DHT22;19997;51.274;22.506;2023-05-23T09:26:45;23.80;52.30
33655;DHT22;19997;51.274;22.506;2023-05-23T09:29:15;23.90;51.70
33655;DHT22;19997;51.274;22.506;2023-05-23T09:31:45;24.00;51.60
33655;DHT22;19997;51.274;22.506;2023-05-23T09:34:12;24.00;50.40
33655;DHT22;19997;51.274;22.506;2023-05-23T09:36:40;24.10;49.10
33655;DHT22;19997;51.274;22.506;2023-05-23T09:39:10;24.20;49.00
33655;DHT22;19997;51.274;22.506;2023-05-23T09:41:38;24.20;48.40
33655;DHT22;19997;51.274;22.506;2023-05-23T09:44:08;24.30;48.40
33655;DHT22;19997;51.274;22.506;2023-05-23T09:46:36;24.30;48.50
33655;DHT22;19997;51.274;22.506;2023-05-23T09:49:14;24.40;48.50
33655;DHT22;19997;51.274;22.506;2023-05-23T09:51:56;24.40;48.30
33655;DHT22;19997;51.274;22.506;2023-05-23T09:54:25;24.40;47.70
33655;DHT22;19997;51.274;22.506;2023-05-23T09:56:52;24.40;47.50
33655;DHT22;19997;51.274;22.506;2023-05-23T09:59:25;24.50;46.60
33655;DHT22;19997;51.274;22.506;2023-05-23T10:01:56;24.50;47.10
33655;DHT22;19997;51.274;22.506;2023-05-23T10:04:33;24.50;46.80
33655;DHT22;19997;51.274;22.506;2023-05-23T10:07:05;24.60;47.20
33655;DHT22;19997;51.274;22.506;2023-05-23T10:09:36;24.60;47.20
33655;DHT22;19997;51.274;22.506;2023-05-23T10:15:13;24.70;47.40
33655;DHT22;19997;51.274;22.506;2023-05-23T10:17:57;24.70;47.20
33655;DHT22;19997;51.274;22.506;2023-05-23T10:20:27;24.70;46.50
33655;DHT22;19997;51.274;22.506;2023-05-23T10:22:58;24.70;46.10
33655;DHT22;19997;51.274;22.506;2023-05-23T10:25:26;24.80;46.20
33655;DHT22;19997;51.274;22.506;2023-05-23T10:27:57;24.80;46.60
33655;DHT22;19997;51.274;22.506;2023-05-23T10:30:26;24.90;47.00
33655;DHT22;19997;51.274;22.506;2023-05-23T10:32:54;24.90;47.10
33655;DHT22;19997;51.274;22.506;2023-05-23T10:38:11;25.10;46.90
33655;DHT22;19997;51.274;22.506;2023-05-23T10:40:51;25.10;46.60
33655;DHT22;19997;51.274;22.506;2023-05-23T10:43:26;25.10;46.30
33655;DHT22;19997;51.274;22.506;2023-05-23T10:45:56;25.10;45.50
33655;DHT22;19997;51.274;22.506;2023-05-23T10:48:31;25.10;45.90
33655;DHT22;19997;51.274;22.506;2023-05-23T10:51:04;25.10;46.30
33655;DHT22;19997;51.274;22.506;2023-05-23T10:53:33;25.20;46.00
33655;DHT22;19997;51.274;22.506;2023-05-23T10:56:01;25.20;46.10
33655;DHT22;19997;51.274;22.506;2023-05-23T10:58:31;25.20;46.40
33655;DHT22;19997;51.274;22.506;2023-05-23T11:01:07;25.10;46.10
33655;DHT22;19997;51.274;22.506;2023-05-23T11:03:36;25.20;46.20
33655;DHT22;19997;51.274;22.506;2023-05-23T11:06:04;25.20;46.00
33655;DHT22;19997;51.274;22.506;2023-05-23T11:08:39;25.30;46.20
33655;DHT22;19997;51.274;22.506;2023-05-23T11:11:10;25.30;46.00
33655;DHT22;19997;51.274;22.506;2023-05-23T11:13:57;25.40;46.30
33655;DHT22;19997;51.274;22.506;2023-05-23T11:16:29;25.40;46.50
33655;DHT22;19997;51.274;22.506;2023-05-23T11:19:25;25.50;46.70
33655;DHT22;19997;51.274;22.506;2023-05-23T11:21:54;25.60;46.40
33655;DHT22;19997;51.274;22.506;2023-05-23T11:24:22;25.70;46.80
33655;DHT22;19997;51.274;22.506;2023-05-23T11:26:53;25.70;46.50
33655;DHT22;19997;51.274;22.506;2023-05-23T11:29:25;25.80;45.90
33655;DHT22;19997;51.274;22.506;2023-05-23T11:31:54;25.90;46.00
33655;DHT22;19997;51.274;22.506;2023-05-23T11:34:22;26.00;46.30
33655;DHT22;19997;51.274;22.506;2023-05-23T11:36:52;26.10;46.10
33655;DHT22;19997;51.274;22.506;2023-05-23T11:39:20;26.10;45.80
33655;DHT22;19997;51.274;22.506;2023-05-23T11:41:57;26.20;45.50
33655;DHT22;19997;51.274;22.506;2023-05-23T11:44:24;26.20;45.50
33655;DHT22;19997;51.274;22.506;2023-05-23T11:47:03;26.10;45.20
33655;DHT22;19997;51.274;22.506;2023-05-23T11:49:34;26.10;44.90
33655;DHT22;19997;51.274;22.506;2023-05-23T11:52:03;26.10;44.80
33655;DHT22;19997;51.274;22.506;2023-05-23T11:54:31;26.20;44.80
33655;DHT22;19997;51.274;22.506;2023-05-23T11:56:58;26.30;44.40
33655;DHT22;19997;51.274;22.506;2023-05-23T11:59:26;26.40;44.10
33655;DHT22;19997;51.274;22.506;2023-05-23T12:01:54;26.50;44.50
33655;DHT22;19997;51.274;22.506;2023-05-23T12:04:24;26.50;44.30
33655;DHT22;19997;51.274;22.506;2023-05-23T12:06:51;26.60;44.30
33655;DHT22;19997;51.274;22.506;2023-05-23T12:09:18;26.70;43.70
33655;DHT22;19997;51.274;22.506;2023-05-23T12:11:48;26.80;44.00
33655;DHT22;19997;51.274;22.506;2023-05-23T12:14:16;26.90;43.70
33655;DHT22;19997;51.274;22.506;2023-05-23T12:16:44;27.00;43.90
33655;DHT22;19997;51.274;22.506;2023-05-23T12:19:12;27.10;43.50
33655;DHT22;19997;51.274;22.506;2023-05-23T12:21:43;27.30;43.20
33655;DHT22;19997;51.274;22.506;2023-05-23T12:24:13;27.40;42.90
33655;DHT22;19997;51.274;22.506;2023-05-23T12:26:51;27.60;42.60
33655;DHT22;19997;51.274;22.506;2023-05-23T12:29:20;27.80;41.70
33655;DHT22;19997;51.274;22.506;2023-05-23T12:31:48;28.00;41.90
33655;DHT22;19997;51.274;22.506;2023-05-23T12:34:16;28.30;42.20
33655;DHT22;19997;51.274;22.506;2023-05-23T12:36:44;28.60;41.70
33655;DHT22;19997;51.274;22.506;2023-05-23T12:39:14;28.80;41.00
33655;DHT22;19997;51.274;22.506;2023-05-23T12:41:41;28.90;40.30
33655;DHT22;19997;51.274;22.506;2023-05-23T12:44:14;29.00;39.90
33655;DHT22;19997;51.274;22.506;2023-05-23T12:46:42;29.00;39.40
33655;DHT22;19997;51.274;22.506;2023-05-23T12:49:10;28.90;39.00
33655;DHT22;19997;51.274;22.506;2023-05-23T12:51:37;28.70;39.00
33655;DHT22;19997;51.274;22.506;2023-05-23T12:54:07;28.60;39.30
33655;DHT22;19997;51.274;22.506;2023-05-23T12:56:34;28.50;39.60
33655;DHT22;19997;51.274;22.506;2023-05-23T12:59:01;28.50;40.10
33655;DHT22;19997;51.274;22.506;2023-05-23T13:01:29;28.30;40.40
33655;DHT22;19997;51.274;22.506;2023-05-23T13:03:56;28.30;40.80
33655;DHT22;19997;51.274;22.506;2023-05-23T13:06:23;28.30;41.20
33655;DHT22;19997;51.274;22.506;2023-05-23T13:08:50;28.30;41.20
33655;DHT22;19997;51.274;22.506;2023-05-23T13:11:20;28.30;41.10
33655;DHT22;19997;51.274;22.506;2023-05-23T13:13:48;28.30;41.00
33655;DHT22;19997;51.274;22.506;2023-05-23T13:16:15;28.20;40.40
33655;DHT22;19997;51.274;22.506;2023-05-23T13:18:42;28.20;40.00
33655;DHT22;19997;51.274;22.506;2023-05-23T13:21:10;28.10;39.80
33655;DHT22;19997;51.274;22.506;2023-05-23T13:23:37;28.00;40.10
33655;DHT22;19997;51.274;22.506;2023-05-23T13:26:04;28.00;40.40
33655;DHT22;19997;51.274;22.506;2023-05-23T13:28:34;27.90;40.80
33655;DHT22;19997;51.274;22.506;2023-05-23T13:31:01;27.80;40.90
33655;DHT22;19997;51.274;22.506;2023-05-23T13:33:28;27.70;41.00
33655;DHT22;19997;51.274;22.506;2023-05-23T13:35:55;27.70;40.80
33655;DHT22;19997;51.274;22.506;2023-05-23T13:38:22;27.60;40.90
33655;DHT22;19997;51.274;22.506;2023-05-23T13:40:52;27.60;40.80
33655;DHT22;19997;51.274;22.506;2023-05-23T13:43:20;27.50;40.10
33655;DHT22;19997;51.274;22.506;2023-05-23T13:45:48;27.50;40.40
33655;DHT22;19997;51.274;22.506;2023-05-23T13:48:15;27.40;40.70
33655;DHT22;19997;51.274;22.506;2023-05-23T13:50:43;27.40;41.20
33655;DHT22;19997;51.274;22.506;2023-05-23T13:53:10;27.50;41.40
33655;DHT22;19997;51.274;22.506;2023-05-23T13:55:41;27.60;40.90
33655;DHT22;19997;51.274;22.506;2023-05-23T13:58:10;27.80;40.40
33655;DHT22;19997;51.274;22.506;2023-05-23T14:00:37;28.10;40.50
33655;DHT22;19997;51.274;22.506;2023-05-23T14:03:06;28.30;41.00
33655;DHT22;19997;51.274;22.506;2023-05-23T14:05:33;28.60;40.80
33655;DHT22;19997;51.274;22.506;2023-05-23T14:08:01;28.80;40.70
33655;DHT22;19997;51.274;22.506;2023-05-23T14:10:29;29.10;40.70
33655;DHT22;19997;51.274;22.506;2023-05-23T14:12:58;29.40;40.50
33655;DHT22;19997;51.274;22.506;2023-05-23T14:15:25;29.70;41.00
33655;DHT22;19997;51.274;22.506;2023-05-23T14:17:52;30.00;40.10
33655;DHT22;19997;51.274;22.506;2023-05-23T14:20:23;30.10;40.40
33655;DHT22;19997;51.274;22.506;2023-05-23T14:22:50;30.30;39.40
33655;DHT22;19997;51.274;22.506;2023-05-23T14:25:17;30.50;38.80
33655;DHT22;19997;51.274;22.506;2023-05-23T14:27:44;30.80;38.40
33655;DHT22;19997;51.274;22.506;2023-05-23T14:30:12;31.10;38.10
33655;DHT22;19997;51.274;22.506;2023-05-23T14:32:39;31.60;37.90
33655;DHT22;19997;51.274;22.506;2023-05-23T14:35:08;32.50;37.50
33655;DHT22;19997;51.274;22.506;2023-05-23T14:37:39;33.90;36.50
33655;DHT22;19997;51.274;22.506;2023-05-23T14:40:07;35.30;34.90
33655;DHT22;19997;51.274;22.506;2023-05-23T14:42:34;36.60;33.90
33655;DHT22;19997;51.274;22.506;2023-05-23T14:45:02;37.70;32.60
33655;DHT22;19997;51.274;22.506;2023-05-23T14:47:29;38.70;31.70
33655;DHT22;19997;51.274;22.506;2023-05-23T14:49:57;39.60;31.20
33655;DHT22;19997;51.274;22.506;2023-05-23T14:52:24;40.40;29.90
33655;DHT22;19997;51.274;22.506;2023-05-23T14:54:52;41.00;29.30
33655;DHT22;19997;51.274;22.506;2023-05-23T14:57:19;41.70;28.80
33655;DHT22;19997;51.274;22.506;2023-05-23T14:59:46;42.40;28.10
33655;DHT22;19997;51.274;22.506;2023-05-23T15:02:14;42.90;27.80
33655;DHT22;19997;51.274;22.506;2023-05-23T15:04:41;43.40;27.90
33655;DHT22;19997;51.274;22.506;2023-05-23T15:07:15;43.90;27.20
33655;DHT22;19997;51.274;22.506;2023-05-23T15:09:45;44.10;26.50
33655;DHT22;19997;51.274;22.506;2023-05-23T15:12:14;44.40;26.20
33655;DHT22;19997;51.274;22.506;2023-05-23T15:14:41;44.80;26.10
33655;DHT22;19997;51.274;22.506;2023-05-23T15:17:09;45.30;25.90
33655;DHT22;19997;51.274;22.506;2023-05-23T15:19:38;45.90;25.60
33655;DHT22;19997;51.274;22.506;2023-05-23T15:22:07;46.40;25.30
33655;DHT22;19997;51.274;22.506;2023-05-23T15:24:34;46.80;25.20
33655;DHT22;19997;51.274;22.506;2023-05-23T15:27:01;46.90;25.20
33655;DHT22;19997;51.274;22.506;2023-05-23T15:29:30;47.00;25.00
33655;DHT22;19997;51.274;22.506;2023-05-23T15:31:58;47.20;24.80
33655;DHT22;19997;51.274;22.506;2023-05-23T15:34:25;47.00;24.80